Time;durP1;ratioP1;P1;durP2;ratioP2;P2;SDS_P1;SDS_P2;PMS_P1;PMS_P2;Temp;Humidity;BMP_temperature;BMP_pressure;BME280_temperature;BME280_humidity;BME280_pressure;Samples;Min_cycle;Max_cycle;Signal;HPM_P1;HPM_P2
2022/08/01 00:00:06;;;;;;;7.33;6.73;;;;;;;-146.72;100.00;64895.28;5058743;28;20492;-75
2022/08/01 00:02:37;;;;;;;7.00;6.40;;;;;;;-146.72;100.00;64895.28;5069609;28;20424;-75
2022/08/01 00:05:06;;;;;;;5.63;5.13;;;;;;;-146.72;100.00;64895.28;5052947;28;20429;-75
2022/08/01 00:07:34;;;;;;;9.33;6.20;;;;;;;-146.72;100.00;64895.28;5086395;28;20428;-75
2022/08/01 00:10:02;;;;;;;6.73;6.13;;;;;;;-146.72;100.00;64895.28;5086125;28;20456;-75
2022/08/01 00:12:29;;;;;;;7.30;6.60;;;;;;;-146.72;100.00;64895.28;5062134;28;20467;-75
2022/08/01 00:14:56;;;;;;;7.07;6.37;;;;;;;-146.72;100.00;64895.28;5087023;28;20427;-75
2022/08/01 00:17:23;;;;;;;6.77;5.73;;;;;;;-146.72;100.00;64895.28;5069490;28;20444;-76
2022/08/01 00:19:49;;;;;;;6.73;6.20;;;;;;;-146.72;100.00;64895.28;5073314;28;20534;-75
2022/08/01 00:22:16;;;;;;;6.53;6.00;;;;;;;-146.72;100.00;64895.28;5089475;28;20474;-75
2022/08/01 00:24:43;;;;;;;6.90;6.03;;;;;;;-146.72;100.00;64895.28;5072759;28;20436;-74
2022/08/01 00:27:10;;;;;;;9.20;6.00;;;;;;;-146.72;100.00;64895.28;5084327;28;20437;-73
2022/08/01 00:29:36;;;;;;;6.80;6.17;;;;;;;-146.72;100.00;64895.28;5081698;28;20448;-73
2022/08/01 00:32:23;;;;;;;6.73;6.10;;;;;;;-146.72;100.00;64895.28;5083730;28;20484;-73
2022/08/01 00:34:50;;;;;;;6.20;5.53;;;;;;;-146.72;100.00;64895.28;5099811;28;20446;-73
2022/08/01 00:37:17;;;;;;;8.10;6.20;;;;;;;-146.72;100.00;64895.28;5076468;28;20436;-73
2022/08/01 00:39:44;;;;;;;6.40;5.80;;;;;;;-146.72;100.00;64895.28;5090829;28;20479;-73
2022/08/01 00:42:12;;;;;;;6.47;6.07;;;;;;;-146.72;100.00;64895.28;5077892;28;20469;-73
2022/08/01 00:44:39;;;;;;;6.40;6.00;;;;;;;-146.72;100.00;64895.28;5056126;28;20447;-74
2022/08/01 00:47:07;;;;;;;7.60;5.83;;;;;;;-146.72;100.00;64895.28;5086079;28;20998;-73
2022/08/01 00:49:34;;;;;;;6.30;5.70;;;;;;;-146.72;100.00;64895.28;5069376;28;20535;-73
2022/08/01 00:52:04;;;;;;;6.60;6.10;;;;;;;-146.72;100.00;64895.28;5088198;28;20472;-74
2022/08/01 00:54:32;;;;;;;6.70;5.70;;;;;;;-146.72;100.00;64895.28;5074481;28;20934;-74
2022/08/01 00:56:59;;;;;;;7.40;6.60;;;;;;;-146.72;100.00;64895.28;5056267;28;20517;-74
2022/08/01 00:59:26;;;;;;;7.17;6.57;;;;;;;-146.72;100.00;64895.28;5081360;28;20852;-74
2022/08/01 01:01:52;;;;;;;7.87;6.37;;;;;;;-146.72;100.00;64895.28;5093327;28;20435;-74
2022/08/01 01:04:20;;;;;;;6.50;6.00;;;;;;;-146.72;100.00;64895.28;5094357;28;20423;-74
2022/08/01 01:07:32;;;;;;;7.03;6.33;;;;;;;-146.72;100.00;64895.28;5092836;28;20868;-74
2022/08/01 01:10:07;;;;;;;7.93;7.20;;;;;;;-146.72;100.00;64895.28;5011768;28;20521;-74
2022/08/01 01:12:34;;;;;;;6.83;6.33;;;;;;;-146.72;100.00;64895.28;5085558;28;20454;-74
2022/08/01 01:15:23;;;;;;;7.33;6.03;;;;;;;-146.72;100.00;64895.28;5076560;28;20443;-74
2022/08/01 01:18:20;;;;;;;6.70;6.00;;;;;;;-146.72;100.00;64895.28;5092796;28;20435;-74
2022/08/01 01:21:03;;;;;;;8.00;7.40;;;;;;;-146.72;100.00;64895.28;5092846;28;20486;-73
2022/08/01 01:23:45;;;;;;;9.40;8.50;;;;;;;-146.72;100.00;64895.28;5075786;28;20445;-73
2022/08/01 01:26:34;;;;;;;8.27;7.67;;;;;;;-146.72;100.00;64895.28;5088903;28;20435;-73
2022/08/01 01:29:06;;;;;;;12.27;8.63;;;;;;;-146.72;100.00;64895.28;5065271;28;20428;-74
2022/08/01 01:31:44;;;;;;;9.90;8.93;;;;;;;-146.72;100.00;64895.28;5072535;28;20502;-74
2022/08/01 01:34:13;;;;;;;9.50;8.80;;;;;;;-146.72;100.00;64895.28;5069757;28;20915;-74
2022/08/01 01:36:43;;;;;;;8.03;7.33;;;;;;;-146.72;100.00;64895.28;5072088;28;20428;-74
2022/08/01 01:39:11;;;;;;;7.20;6.50;;;;;;;-146.72;100.00;64895.28;5072104;28;20515;-74
2022/08/01 01:41:39;;;;;;;8.23;7.63;;;;;;;-146.72;100.00;64895.28;5055628;28;20479;-73
2022/08/01 01:44:07;;;;;;;9.13;7.10;;;;;;;-146.72;100.00;64895.28;5074133;28;20429;-74
2022/08/01 01:46:35;;;;;;;9.27;8.37;;;;;;;-146.72;100.00;64895.28;5092262;28;20431;-74
2022/08/01 01:49:03;;;;;;;8.80;7.90;;;;;;;-146.72;100.00;64895.28;5092385;28;20788;-74
2022/08/01 01:51:31;;;;;;;9.77;8.97;;;;;;;-146.72;100.00;64895.28;5092202;28;21030;-74
2022/08/01 01:54:00;;;;;;;8.37;7.57;;;;;;;-146.72;100.00;64895.28;5091994;28;20455;-74
2022/08/01 01:56:29;;;;;;;8.90;8.17;;;;;;;-146.72;100.00;64895.28;5092050;28;20436;-74
2022/08/01 01:59:02;;;;;;;9.03;8.40;;;;;;;-146.72;100.00;64895.28;5087986;28;21044;-74
2022/08/01 02:01:32;;;;;;;9.77;8.57;;;;;;;-146.72;100.00;64895.28;5076809;28;20453;-74
2022/08/01 02:04:21;;;;;;;8.70;7.90;;;;;;;-146.72;100.00;64895.28;5061330;28;20520;-74
2022/08/01 02:06:52;;;;;;;10.63;7.63;;;;;;;-146.72;100.00;64895.28;5088463;28;20928;-74
2022/08/01 02:09:21;;;;;;;7.37;6.80;;;;;;;-146.72;100.00;64895.28;5082305;28;20430;-74
2022/08/01 02:11:49;;;;;;;7.77;6.97;;;;;;;-146.72;100.00;64895.28;5091935;28;20439;-74
2022/08/01 02:14:35;;;;;;;8.77;8.03;;;;;;;-146.72;100.00;64895.28;5093596;28;20428;-74
2022/08/01 02:17:03;;;;;;;7.93;7.20;;;;;;;-146.72;100.00;64895.28;5088490;28;20459;-73
2022/08/01 02:19:32;;;;;;;8.60;7.70;;;;;;;-146.72;100.00;64895.28;5088436;28;20461;-73
2022/08/01 02:22:30;;;;;;;7.73;7.10;;;;;;;-146.72;100.00;64895.28;5071905;28;20451;-74
2022/08/01 02:25:07;;;;;;;8.60;7.90;;;;;;;-146.72;100.00;64895.28;5061205;28;20478;-74
2022/08/01 02:27:41;;;;;;;8.77;7.30;;;;;;;-146.72;100.00;64895.28;5071314;28;20440;-74
2022/08/01 02:30:12;;;;;;;7.30;6.73;;;;;;;-146.72;100.00;64895.28;5072817;28;20940;-74
2022/08/01 02:32:53;;;;;;;7.00;6.50;;;;;;;-146.72;100.00;64895.28;5071055;28;20511;-74
2022/08/01 02:35:27;;;;;;;7.27;6.77;;;;;;;-146.72;100.00;64895.28;5087100;28;20526;-74
2022/08/01 02:37:56;;;;;;;7.83;7.23;;;;;;;-146.72;100.00;64895.28;5074455;28;20530;-74
2022/08/01 02:40:27;;;;;;;7.87;7.17;;;;;;;-146.72;100.00;64895.28;5074370;28;20505;-74
2022/08/01 02:42:56;;;;;;;7.60;6.90;;;;;;;-146.72;100.00;64895.28;5074412;28;20459;-74
2022/08/01 02:45:25;;;;;;;7.40;6.90;;;;;;;-146.72;100.00;64895.28;5091014;28;20916;-73
2022/08/01 02:47:58;;;;;;;6.33;5.93;;;;;;;-146.72;100.00;64895.28;5074214;28;20522;-73
2022/08/01 02:50:28;;;;;;;6.93;6.43;;;;;;;-146.72;100.00;64895.28;5090794;28;20463;-74
2022/08/01 02:52:56;;;;;;;7.63;6.00;;;;;;;-146.72;100.00;64895.28;5090825;28;20551;-74
2022/08/01 02:55:25;;;;;;;7.10;6.60;;;;;;;-146.72;100.00;64895.28;5089780;28;20431;-74
2022/08/01 02:57:54;;;;;;;7.13;6.63;;;;;;;-146.72;100.00;64895.28;5053998;28;20889;-74
2022/08/01 03:00:27;;;;;;;8.27;7.47;;;;;;;-146.72;100.00;64895.28;5073086;28;20551;-73
2022/08/01 03:02:56;;;;;;;6.70;6.20;;;;;;;-146.72;100.00;64895.28;5092148;28;20456;-73
2022/08/01 03:05:24;;;;;;;7.57;6.90;;;;;;;-146.72;100.00;64895.28;5090683;28;20463;-74
2022/08/01 03:07:53;;;;;;;7.10;6.60;;;;;;;-146.72;100.00;64895.28;5091176;28;20861;-73
2022/08/01 03:10:20;;;;;;;8.30;7.70;;;;;;;-146.72;100.00;64895.28;5090655;28;20491;-73
2022/08/01 03:12:49;;;;;;;7.90;7.40;;;;;;;-146.72;100.00;64895.28;5090696;28;21002;-74
2022/08/01 03:15:17;;;;;;;10.77;7.50;;;;;;;-146.72;100.00;64895.28;5090150;28;20479;-73
2022/08/01 03:17:47;;;;;;;8.10;7.40;;;;;;;-146.72;100.00;64895.28;5090667;28;20475;-73
2022/08/01 03:20:16;;;;;;;8.10;7.50;;;;;;;-146.72;100.00;64895.28;5090240;28;20463;-74
2022/08/01 03:22:45;;;;;;;7.37;6.77;;;;;;;-146.72;100.00;64895.28;5073876;28;20439;-73
2022/08/01 03:25:13;;;;;;;7.67;7.00;;;;;;;-146.72;100.00;64895.28;5090234;28;20460;-73
2022/08/01 03:27:43;;;;;;;7.80;7.30;;;;;;;-146.72;100.00;64895.28;5062662;28;20988;-74
2022/08/01 03:30:11;;;;;;;8.10;7.40;;;;;;;-146.72;100.00;64895.28;5086747;28;20510;-73
2022/08/01 03:32:38;;;;;;;8.60;7.90;;;;;;;-146.72;100.00;64895.28;5069773;28;20548;-73
2022/08/01 03:35:05;;;;;;;7.93;6.70;;;;;;;-146.72;100.00;64895.28;5075508;28;21012;-73
2022/08/01 03:37:40;;;;;;;8.03;7.20;;;;;;;-146.72;100.00;64895.28;5071468;28;20812;-73
2022/08/01 03:40:45;;;;;;;8.10;7.50;;;;;;;-146.72;100.00;64895.28;5090084;28;21005;-74
2022/08/01 03:43:20;;;;;;;6.90;6.40;;;;;;;-146.72;100.00;64895.28;5090027;28;21054;-74
2022/08/01 03:45:51;;;;;;;8.00;7.40;;;;;;;-146.72;100.00;64895.28;5073208;28;20484;-73
2022/08/01 03:48:20;;;;;;;7.00;6.40;;;;;;;-146.72;100.00;64895.28;5090017;28;20493;-73
2022/08/01 03:50:50;;;;;;;9.70;6.90;;;;;;;-146.72;100.00;64895.28;5089720;28;21076;-73
2022/08/01 03:53:22;;;;;;;7.67;7.17;;;;;;;-146.72;100.00;64895.28;5073076;28;20562;-73
2022/08/01 03:55:50;;;;;;;7.67;6.80;;;;;;;-146.72;100.00;64895.28;5091189;28;20788;-73
2022/08/01 03:58:17;;;;;;;7.87;7.37;;;;;;;-146.72;100.00;64895.28;5089753;28;20489;-73
2022/08/01 04:00:44;;;;;;;8.03;7.20;;;;;;;-146.72;100.00;64895.28;5080011;28;20448;-73
2022/08/01 04:03:14;;;;;;;9.20;7.80;;;;;;;-146.72;100.00;64895.28;5084471;28;20857;-73
2022/08/01 04:05:42;;;;;;;8.27;7.60;;;;;;;-146.72;100.00;64895.28;5068157;28;20439;-73
2022/08/01 04:08:09;;;;;;;8.10;7.60;;;;;;;-146.72;100.00;64895.28;5084747;28;20451;-74
2022/08/01 04:10:37;;;;;;;9.03;8.20;;;;;;;-146.72;100.00;64895.28;5083633;28;20448;-73
2022/08/01 04:13:03;;;;;;;8.93;7.10;;;;;;;-146.72;100.00;64895.28;5069553;28;20842;-73
2022/08/01 04:15:30;;;;;;;8.83;7.93;;;;;;;-146.72;100.00;64895.28;5069637;28;21014;-73
2022/08/01 04:17:57;;;;;;;9.73;7.10;;;;;;;-146.72;100.00;64895.28;5070927;28;20428;-73
2022/08/01 04:20:24;;;;;;;7.50;7.00;;;;;;;-146.72;100.00;64895.28;5069546;28;20498;-74
2022/08/01 04:22:51;;;;;;;8.40;7.47;;;;;;;-146.72;100.00;64895.28;5086196;28;20465;-74
2022/08/01 04:25:34;;;;;;;7.47;6.97;;;;;;;-146.72;100.00;64895.28;5070855;28;20518;-74
2022/08/01 04:28:04;;;;;;;7.83;7.07;;;;;;;-146.72;100.00;64895.28;5059953;28;20506;-74
2022/08/01 04:30:34;;;;;;;9.40;6.80;;;;;;;-146.72;100.00;64895.28;5067437;28;20504;-73
2022/08/01 04:33:04;;;;;;;6.87;6.07;;;;;;;-146.72;100.00;64895.28;5093505;28;20495;-74
2022/08/01 04:35:34;;;;;;;10.50;7.70;;;;;;;-146.72;100.00;64895.28;5082639;28;20423;-74
2022/08/01 04:38:27;;;;;;;11.00;7.93;;;;;;;-146.72;100.00;64895.28;5074676;28;20778;-74
2022/08/01 04:40:56;;;;;;;8.50;6.77;;;;;;;-146.72;100.00;64895.28;5056574;28;20534;-73
2022/08/01 04:43:23;;;;;;;8.63;7.83;;;;;;;-146.72;100.00;64895.28;5089941;28;20429;-74
2022/08/01 04:45:51;;;;;;;10.10;7.60;;;;;;;-146.72;100.00;64895.28;5073097;28;20420;-74
2022/08/01 04:48:19;;;;;;;8.60;7.80;;;;;;;-146.72;100.00;64895.28;5056579;28;20429;-74
2022/08/01 04:50:48;;;;;;;9.33;7.00;;;;;;;-146.72;100.00;64895.28;5072913;28;20461;-74
2022/08/01 04:53:17;;;;;;;8.50;7.73;;;;;;;-146.72;100.00;64895.28;5074506;28;20499;-74
2022/08/01 04:55:48;;;;;;;7.80;7.13;;;;;;;-146.72;100.00;64895.28;5056529;28;20440;-74
2022/08/01 04:58:15;;;;;;;8.30;6.60;;;;;;;-146.72;100.00;64895.28;5073158;28;20470;-73
2022/08/01 05:00:45;;;;;;;7.10;6.50;;;;;;;-146.72;100.00;64895.28;5053602;28;20484;-73
2022/08/01 05:03:12;;;;;;;7.13;6.63;;;;;;;-146.72;100.00;64895.28;5065962;28;20459;-74
2022/08/01 05:05:39;;;;;;;7.17;6.67;;;;;;;-146.72;100.00;64895.28;5056156;28;20441;-74
2022/08/01 05:08:05;;;;;;;8.80;8.00;;;;;;;-146.72;100.00;64895.28;5056152;28;20440;-74
2022/08/01 05:10:33;;;;;;;7.77;6.97;;;;;;;-146.72;100.00;64895.28;5056127;28;20475;-74
2022/08/01 05:13:00;;;;;;;7.90;7.20;;;;;;;-146.72;100.00;64895.28;5086246;28;20472;-74
2022/08/01 05:15:27;;;;;;;7.70;7.10;;;;;;;-146.72;100.00;64895.28;5085716;28;20771;-74
2022/08/01 05:17:56;;;;;;;11.13;7.13;;;;;;;-146.72;100.00;64895.28;5072454;28;20468;-74
2022/08/01 05:20:23;;;;;;;7.63;6.93;;;;;;;-146.72;100.00;64895.28;5072310;28;20452;-74
2022/08/01 05:22:49;;;;;;;7.47;6.77;;;;;;;-146.72;100.00;64895.28;5073517;28;20455;-73
2022/08/01 05:25:16;;;;;;;6.97;6.47;;;;;;;-146.72;100.00;64895.28;5072420;28;20569;-73
2022/08/01 05:27:46;;;;;;;7.80;7.10;;;;;;;-146.72;100.00;64895.28;5058979;28;20537;-73
2022/08/01 05:30:16;;;;;;;6.30;5.70;;;;;;;-146.72;100.00;64895.28;5073551;28;20486;-73
2022/08/01 05:32:43;;;;;;;6.60;6.10;;;;;;;-146.72;100.00;64895.28;5055383;28;20528;-73
2022/08/01 05:35:10;;;;;;;7.67;6.87;;;;;;;-146.72;100.00;64895.28;5057673;28;20469;-73
2022/08/01 05:37:37;;;;;;;7.30;6.07;;;;;;;-146.72;100.00;64895.28;5067141;28;20494;-73
2022/08/01 05:40:05;;;;;;;6.60;6.10;;;;;;;-146.72;100.00;64895.28;5055383;28;20575;-73
2022/08/01 05:42:31;;;;;;;6.53;6.00;;;;;;;-146.72;100.00;64895.28;5072004;28;20428;-73
2022/08/01 05:44:58;;;;;;;5.03;4.60;;;;;;;-146.72;100.00;64895.28;5072007;28;20478;-73
2022/08/01 05:47:25;;;;;;;9.23;5.20;;;;;;;-146.72;100.00;64895.28;5072063;28;20546;-73
2022/08/01 05:49:51;;;;;;;8.70;5.20;;;;;;;-146.72;100.00;64895.28;5071799;28;20464;-73
2022/08/01 05:52:18;;;;;;;5.33;4.60;;;;;;;-146.72;100.00;64895.28;5073158;28;21080;-73
2022/08/01 05:54:45;;;;;;;7.07;4.27;;;;;;;-146.72;100.00;64895.28;5071774;28;20448;-73
2022/08/01 05:57:12;;;;;;;11.87;5.00;;;;;;;-146.72;100.00;64895.28;5088577;28;20432;-73
2022/08/01 05:59:40;;;;;;;6.47;4.30;;;;;;;-146.72;100.00;64895.28;5055469;28;20449;-73
2022/08/01 06:02:07;;;;;;;4.97;3.90;;;;;;;-146.72;100.00;64895.28;5055215;28;20932;-73
2022/08/01 06:04:34;;;;;;;5.47;3.83;;;;;;;-146.72;100.00;64895.28;5071620;28;20436;-73
2022/08/01 06:07:01;;;;;;;4.40;3.63;;;;;;;-146.72;100.00;64895.28;5071753;28;20429;-73
2022/08/01 06:09:28;;;;;;;4.10;2.83;;;;;;;-146.72;100.00;64895.28;5072945;28;20488;-73
2022/08/01 06:11:55;;;;;;;3.00;2.80;;;;;;;-146.72;100.00;64895.28;5071668;28;20483;-73
2022/08/01 06:14:22;;;;;;;3.77;3.37;;;;;;;-146.72;100.00;64895.28;5055356;28;20526;-73
2022/08/01 06:16:48;;;;;;;3.93;3.30;;;;;;;-146.72;100.00;64895.28;5055139;28;20489;-73
2022/08/01 06:19:15;;;;;;;5.13;2.97;;;;;;;-146.72;100.00;64895.28;5055306;28;20437;-73
2022/08/01 06:21:42;;;;;;;4.33;3.00;;;;;;;-146.72;100.00;64895.28;5072927;28;20424;-73
2022/08/01 06:24:08;;;;;;;5.43;4.77;;;;;;;-146.72;100.00;64895.28;5071710;28;20428;-73
2022/08/01 06:26:36;;;;;;;2.80;2.60;;;;;;;-146.72;100.00;64895.28;5054855;28;20429;-73
2022/08/01 06:29:03;;;;;;;3.03;2.83;;;;;;;-146.72;100.00;64895.28;5073176;28;20924;-73
2022/08/01 06:31:31;;;;;;;4.03;3.73;;;;;;;-146.72;100.00;64895.28;5054838;28;20532;-73
2022/08/01 06:33:59;;;;;;;3.67;3.40;;;;;;;-146.72;100.00;64895.28;5076360;28;20509;-73
2022/08/01 06:36:26;;;;;;;4.43;3.00;;;;;;;-146.72;100.00;64895.28;5073408;28;20947;-73
2022/08/01 06:38:53;;;;;;;4.07;3.17;;;;;;;-146.72;100.00;64895.28;5071512;28;20464;-73
2022/08/01 06:41:20;;;;;;;3.93;2.70;;;;;;;-146.72;100.00;64895.28;5054780;28;20456;-74
2022/08/01 06:43:46;;;;;;;3.73;3.40;;;;;;;-146.72;100.00;64895.28;5072630;28;20860;-74
2022/08/01 06:46:13;;;;;;;4.03;3.00;;;;;;;-146.72;100.00;64895.28;5059325;28;20470;-74
2022/08/01 06:48:40;;;;;;;4.27;2.87;;;;;;;-146.72;100.00;64895.28;5071680;28;20433;-73
2022/08/01 06:51:13;;;;;;;2.50;2.33;;;;;;;-146.72;100.00;64895.28;5071136;28;20518;-74
2022/08/01 06:53:40;;;;;;;3.30;3.10;;;;;;;-146.72;100.00;64895.28;5072479;28;20503;-74
2022/08/01 06:56:08;;;;;;;2.97;2.77;;;;;;;-146.72;100.00;64895.28;5070986;28;20818;-74
2022/08/01 06:58:35;;;;;;;4.77;3.07;;;;;;;-146.72;100.00;64895.28;5088014;28;20447;-74
2022/08/01 07:01:05;;;;;;;3.60;2.80;;;;;;;-146.72;100.00;64895.28;5070896;28;20868;-74
2022/08/01 07:03:34;;;;;;;3.67;3.33;;;;;;;-146.72;100.00;64895.28;5072118;28;20450;-74
2022/08/01 07:06:25;;;;;;;3.07;2.87;;;;;;;-146.72;100.00;64895.28;5071084;28;20535;-74
2022/08/01 07:08:52;;;;;;;3.90;2.63;;;;;;;-146.72;100.00;64895.28;5072427;28;20467;-74
2022/08/01 07:11:20;;;;;;;3.80;2.90;;;;;;;-146.72;100.00;64895.28;5067056;28;20458;-75
2022/08/01 07:13:47;;;;;;;3.63;3.30;;;;;;;-146.72;100.00;64895.28;5090880;28;20477;-74
2022/08/01 07:16:15;;;;;;;3.00;2.80;;;;;;;-146.72;100.00;64895.28;5078222;28;20487;-74
2022/08/01 07:18:42;;;;;;;3.10;2.80;;;;;;;-146.72;100.00;64895.28;5054139;28;20478;-75
2022/08/01 07:21:08;;;;;;;3.47;3.17;;;;;;;-146.72;100.00;64895.28;5071241;28;20973;-75
2022/08/01 07:23:55;;;;;;;6.23;5.63;;;;;;;-146.72;100.00;64895.28;5073694;28;20521;-74
2022/08/01 07:26:22;;;;;;;3.20;3.00;;;;;;;-146.72;100.00;64895.28;5070510;28;20459;-74
2022/08/01 07:28:49;;;;;;;3.57;3.37;;;;;;;-146.72;100.00;64895.28;5071974;28;20471;-74
2022/08/01 07:31:15;;;;;;;3.03;2.83;;;;;;;-146.72;100.00;64895.28;5070795;28;20479;-74
2022/08/01 07:33:42;;;;;;;3.40;3.10;;;;;;;-146.72;100.00;64895.28;5074005;28;20495;-74
2022/08/01 07:36:18;;;;;;;4.10;3.80;;;;;;;-146.72;100.00;64895.28;5054762;28;20429;-74
2022/08/01 07:38:46;;;;;;;3.43;2.90;;;;;;;-146.72;100.00;64895.28;5073972;28;20919;-74
2022/08/01 07:41:12;;;;;;;3.83;3.63;;;;;;;-146.72;100.00;64895.28;5090344;28;20475;-74
2022/08/01 07:43:39;;;;;;;3.20;3.00;;;;;;;-146.72;100.00;64895.28;5090710;28;20536;-74
2022/08/01 07:46:06;;;;;;;3.60;3.40;;;;;;;-146.72;100.00;64895.28;5090518;28;20432;-74
2022/08/01 07:48:33;;;;;;;6.10;3.43;;;;;;;-146.72;100.00;64895.28;5090828;28;20439;-74
2022/08/01 07:51:00;;;;;;;3.47;3.17;;;;;;;-146.72;100.00;64895.28;5073801;28;20452;-75
2022/08/01 07:53:27;;;;;;;3.63;3.33;;;;;;;-146.72;100.00;64895.28;5090875;28;20928;-74
2022/08/01 07:55:53;;;;;;;3.50;3.20;;;;;;;-146.72;100.00;64895.28;5092083;28;20877;-74
2022/08/01 07:58:20;;;;;;;3.20;3.00;;;;;;;-146.72;100.00;64895.28;5091967;28;20419;-73
2022/08/01 08:00:46;;;;;;;3.60;3.13;;;;;;;-146.72;100.00;64895.28;5091257;28;20534;-74
2022/08/01 08:03:13;;;;;;;4.30;3.43;;;;;;;-146.72;100.00;64895.28;5073659;28;20460;-74
2022/08/01 08:05:40;;;;;;;3.10;2.90;;;;;;;-146.72;100.00;64895.28;5090212;28;20431;-73
2022/08/01 08:08:24;;;;;;;2.80;2.60;;;;;;;-146.72;100.00;64895.28;5090058;28;20451;-74
2022/08/01 08:10:51;;;;;;;3.57;3.30;;;;;;;-146.72;100.00;64895.28;5069980;28;20543;-74
2022/08/01 08:13:17;;;;;;;3.57;3.00;;;;;;;-146.72;100.00;64895.28;5069993;28;20948;-74
2022/08/01 08:15:46;;;;;;;2.70;2.50;;;;;;;-146.72;100.00;64895.28;5071314;28;20460;-74
2022/08/01 08:18:14;;;;;;;2.80;2.60;;;;;;;-146.72;100.00;64895.28;5070045;28;20436;-74
2022/08/01 08:20:41;;;;;;;3.27;2.97;;;;;;;-146.72;100.00;64895.28;5053139;28;20492;-74
2022/08/01 08:24:19;;;;;;;3.50;3.20;;;;;;;-146.72;100.00;64895.28;5086953;28;20943;-74
2022/08/01 08:26:11;;;;;;;3.47;3.10;;;;;;;-146.72;100.00;64895.28;5087083;28;20432;-74
2022/08/01 08:28:38;;;;;;;3.13;2.63;;;;;;;-146.72;100.00;64895.28;5069843;28;20443;-74
2022/08/01 08:31:07;;;;;;;2.93;2.73;;;;;;;-146.72;100.00;64895.28;5070034;28;20468;-74
2022/08/01 08:33:54;;;;;;;4.00;3.50;;;;;;;-146.72;100.00;64895.28;5074047;28;20522;-75
2022/08/01 08:36:20;;;;;;;3.00;2.80;;;;;;;-146.72;100.00;64895.28;5054616;28;20952;-75
2022/08/01 08:38:56;;;;;;;2.93;2.73;;;;;;;-146.72;100.00;64895.28;5071485;28;20928;-75
2022/08/01 08:41:23;;;;;;;4.33;3.17;;;;;;;-146.72;100.00;64895.28;5069598;28;20445;-75
2022/08/01 08:43:50;;;;;;;3.70;3.30;;;;;;;-146.72;100.00;64895.28;5069779;28;20436;-75
2022/08/01 08:46:17;;;;;;;3.17;2.97;;;;;;;-146.72;100.00;64895.28;5069848;28;20464;-75
2022/08/01 08:48:56;;;;;;;2.80;2.60;;;;;;;-146.72;100.00;64895.28;5069574;28;20440;-74
2022/08/01 08:51:26;;;;;;;3.73;3.43;;;;;;;-146.72;100.00;64895.28;5071150;28;20448;-74
2022/08/01 08:53:55;;;;;;;3.40;3.07;;;;;;;-146.72;100.00;64895.28;5086923;28;20936;-74
2022/08/01 08:56:25;;;;;;;2.87;2.60;;;;;;;-146.72;100.00;64895.28;5086942;28;20436;-73
2022/08/01 08:58:54;;;;;;;2.87;2.57;;;;;;;-146.72;100.00;64895.28;5070123;28;20448;-73
2022/08/01 09:01:21;;;;;;;2.73;2.53;;;;;;;-146.72;100.00;64895.28;5070642;28;20463;-74
2022/08/01 09:03:48;;;;;;;3.00;2.80;;;;;;;-146.72;100.00;64895.28;5070079;28;20555;-74
2022/08/01 09:06:15;;;;;;;3.87;2.30;;;;;;;-146.72;100.00;64895.28;5069831;28;20428;-74
2022/08/01 09:08:42;;;;;;;2.60;2.40;;;;;;;-146.72;100.00;64895.28;5086276;28;20881;-73
2022/08/01 09:11:09;;;;;;;2.43;2.23;;;;;;;-146.72;100.00;64895.28;5069736;28;20465;-73
2022/08/01 09:13:36;;;;;;;2.87;2.60;;;;;;;-146.72;100.00;64895.28;5073912;28;20983;-74
2022/08/01 09:16:17;;;;;;;3.30;3.00;;;;;;;-146.72;100.00;64895.28;5073886;28;20443;-73
2022/08/01 09:18:44;;;;;;;3.00;2.70;;;;;;;-146.72;100.00;64895.28;5073730;28;20483;-73
2022/08/01 09:21:22;;;;;;;2.40;2.20;;;;;;;-146.72;100.00;64895.28;5074518;28;20501;-73
2022/08/01 09:23:54;;;;;;;2.03;1.93;;;;;;;-146.72;100.00;64895.28;5073113;28;20940;-73
2022/08/01 09:26:30;;;;;;;2.20;2.10;;;;;;;-146.72;100.00;64895.28;5073053;28;20460;-73
2022/08/01 09:28:59;;;;;;;2.17;1.87;;;;;;;-146.72;100.00;64895.28;5074855;28;20420;-73
2022/08/01 09:31:28;;;;;;;2.40;1.90;;;;;;;-146.72;100.00;64895.28;5072773;28;20456;-73
2022/08/01 09:34:04;;;;;;;2.20;2.00;;;;;;;-146.72;100.00;64895.28;5070705;28;20447;-73
2022/08/01 09:36:58;;;;;;;2.27;2.07;;;;;;;-146.72;100.00;64895.28;5043075;28;20481;-73
2022/08/01 09:39:32;;;;;;;2.40;2.07;;;;;;;-146.72;100.00;64895.28;5073493;28;20518;-73
2022/08/01 09:42:01;;;;;;;2.63;2.43;;;;;;;-146.72;100.00;64895.28;5074267;28;20438;-73
2022/08/01 09:44:38;;;;;;;2.70;2.50;;;;;;;-146.72;100.00;64895.28;5072889;28;20432;-73
2022/08/01 09:47:12;;;;;;;3.63;2.23;;;;;;;-146.72;100.00;64895.28;5072764;28;20803;-74
2022/08/01 09:49:42;;;;;;;2.07;1.90;;;;;;;-146.72;100.00;64895.28;5073914;28;20440;-73
2022/08/01 09:52:21;;;;;;;2.50;2.30;;;;;;;-146.72;100.00;64895.28;5072770;28;21099;-73
2022/08/01 09:55:03;;;;;;;4.53;2.30;;;;;;;-146.72;100.00;64895.28;5056710;28;20996;-74
2022/08/01 09:57:30;;;;;;;2.70;1.93;;;;;;;-146.72;100.00;64895.28;5072425;28;20439;-73
2022/08/01 09:59:59;;;;;;;2.10;1.97;;;;;;;-146.72;100.00;64895.28;5074429;28;20476;-74
2022/08/01 10:02:36;;;;;;;3.23;2.37;;;;;;;-146.72;100.00;64895.28;5057001;28;20440;-73
2022/08/01 10:05:05;;;;;;;1.83;1.73;;;;;;;-146.72;100.00;64895.28;5066819;28;20661;-73
2022/08/01 10:07:36;;;;;;;2.30;2.10;;;;;;;-146.72;100.00;64895.28;5090370;28;20785;-73
2022/08/01 10:10:14;;;;;;;1.87;1.77;;;;;;;-146.72;100.00;64895.28;5083753;28;20467;-73
2022/08/01 10:12:42;;;;;;;2.30;2.20;;;;;;;-146.72;100.00;64895.28;5084021;28;20437;-72
2022/08/01 10:15:10;;;;;;;3.03;2.23;;;;;;;-146.72;100.00;64895.28;5067900;28;20467;-73
2022/08/01 10:17:46;;;;;;;4.03;2.67;;;;;;;-146.72;100.00;64895.28;5096587;28;21165;-73
2022/08/01 10:20:20;;;;;;;2.10;1.90;;;;;;;-146.72;100.00;64895.28;5103356;28;20498;-73
2022/08/01 10:23:02;;;;;;;5.60;1.97;;;;;;;-146.72;100.00;64895.28;5091942;28;20530;-73
2022/08/01 10:25:40;;;;;;;2.40;1.60;;;;;;;-146.72;100.00;64895.28;5091702;28;20484;-75
2022/08/01 10:28:18;;;;;;;1.70;1.60;;;;;;;-146.72;100.00;64895.28;5053222;28;20465;-75
2022/08/01 10:30:49;;;;;;;1.93;1.83;;;;;;;-146.72;100.00;64895.28;5071632;28;20458;-75
2022/08/01 10:33:21;;;;;;;1.90;1.77;;;;;;;-146.72;100.00;64895.28;5072186;28;20421;-75
2022/08/01 10:36:09;;;;;;;2.00;1.90;;;;;;;-146.72;100.00;64895.28;5055232;28;20537;-75
2022/08/01 10:38:36;;;;;;;2.30;1.60;;;;;;;-146.72;100.00;64895.28;5072212;28;20802;-75
2022/08/01 10:41:04;;;;;;;2.80;1.87;;;;;;;-146.72;100.00;64895.28;5088405;28;20495;-75
2022/08/01 10:43:32;;;;;;;2.70;1.80;;;;;;;-146.72;100.00;64895.28;5082303;28;20443;-75
2022/08/01 10:46:03;;;;;;;1.80;1.70;;;;;;;-146.72;100.00;64895.28;5070692;28;20436;-75
2022/08/01 10:48:49;;;;;;;1.77;1.60;;;;;;;-146.72;100.00;64895.28;5059833;28;20540;-75
2022/08/01 10:51:20;;;;;;;3.57;1.97;;;;;;;-146.72;100.00;64895.28;5059450;28;20543;-75
2022/08/01 10:53:50;;;;;;;2.40;2.20;;;;;;;-146.72;100.00;64895.28;5071392;28;20502;-75
2022/08/01 10:56:23;;;;;;;5.47;2.10;;;;;;;-146.72;100.00;64895.28;5072685;28;20448;-75
2022/08/01 10:59:02;;;;;;;2.60;1.80;;;;;;;-146.72;100.00;64895.28;5072555;28;20512;-75
2022/08/01 11:01:37;;;;;;;1.70;1.60;;;;;;;-146.72;100.00;64895.28;5087206;28;20428;-75
2022/08/01 11:04:14;;;;;;;2.30;2.20;;;;;;;-146.72;100.00;64895.28;5071150;28;20424;-75
2022/08/01 11:06:50;;;;;;;4.50;2.27;;;;;;;-146.72;100.00;64895.28;5071208;28;20455;-76
2022/08/01 11:09:37;;;;;;;2.03;1.90;;;;;;;-146.72;100.00;64895.28;5082680;28;20825;-76
2022/08/01 11:12:16;;;;;;;2.57;2.10;;;;;;;-146.72;100.00;64895.28;5074788;28;20443;-76
2022/08/01 11:15:00;;;;;;;2.73;2.53;;;;;;;-146.72;100.00;64895.28;5091091;28;21069;-76
2022/08/01 11:17:39;;;;;;;2.60;2.37;;;;;;;-146.72;100.00;64895.28;5092800;28;20526;-76
2022/08/01 11:20:18;;;;;;;3.00;2.40;;;;;;;-146.72;100.00;64895.28;5074842;28;20459;-76
2022/08/01 11:23:15;;;;;;;2.50;2.10;;;;;;;-146.72;100.00;64895.28;5091415;28;20469;-76
2022/08/01 11:25:46;;;;;;;2.43;2.33;;;;;;;-146.72;100.00;64895.28;5062258;28;20417;-76